Time;durP1;ratioP1;P1;durP2;ratioP2;P2;SDS_P1;SDS_P2;PMS_P1;PMS_P2;Temp;Humidity;BMP_temperature;BMP_pressure;BME280_temperature;BME280_humidity;BME280_pressure;Samples;Min_cycle;Max_cycle;Signal;HPM_P1;HPM_P2
2021/12/18 00:02:02;;;;;;;12.45;7.55;;;8.80;79.50;;;;;;5111680;28;20028;-72
2021/12/18 00:04:28;;;;;;;14.07;8.07;;;8.80;79.60;;;;;;5111664;28;20019;-72
2021/12/18 00:06:55;;;;;;;12.90;7.20;;;8.80;79.60;;;;;;5113989;28;20044;-72
2021/12/18 00:09:21;;;;;;;12.93;7.25;;;8.80;79.80;;;;;;5108588;28;20530;-73
2021/12/18 00:11:48;;;;;;;12.80;7.15;;;8.80;79.70;;;;;;5089173;28;20023;-72
2021/12/18 00:14:15;;;;;;;14.30;7.78;;;8.80;79.70;;;;;;5109529;28;20027;-72
2021/12/18 00:16:41;;;;;;;15.27;7.82;;;8.70;80.20;;;;;;5094968;28;20020;-72
2021/12/18 00:19:07;;;;;;;14.30;8.15;;;8.80;80.30;;;;;;5113487;28;20112;-72
2021/12/18 00:21:36;;;;;;;11.75;6.85;;;8.80;79.70;;;;;;5111142;28;20027;-72
2021/12/18 00:24:06;;;;;;;11.43;6.80;;;8.70;79.60;;;;;;5093014;28;20024;-73
2021/12/18 00:26:32;;;;;;;12.38;7.50;;;8.70;79.90;;;;;;5111293;28;20467;-72
2021/12/18 00:28:57;;;;;;;12.32;7.10;;;8.70;79.80;;;;;;5093145;28;20029;-73
2021/12/18 00:31:23;;;;;;;12.90;7.57;;;8.60;79.60;;;;;;5111680;28;20186;-73
2021/12/18 00:33:49;;;;;;;13.68;7.60;;;8.70;80.40;;;;;;5112526;28;20035;-72
2021/12/18 00:36:15;;;;;;;12.85;8.23;;;8.70;80.50;;;;;;5111278;28;20380;-73
2021/12/18 00:38:41;;;;;;;11.95;7.43;;;8.70;80.30;;;;;;5111344;28;20403;-73
2021/12/18 00:43:38;;;;;;;11.52;6.78;;;8.70;80.00;;;;;;5111252;28;20032;-73
2021/12/18 00:46:04;;;;;;;12.77;7.20;;;8.70;80.10;;;;;;5112789;28;20492;-74
2021/12/18 00:48:30;;;;;;;12.90;7.25;;;8.70;80.30;;;;;;5110987;28;20027;-73
2021/12/18 00:50:56;;;;;;;11.95;7.50;;;8.80;80.10;;;;;;5092731;28;20114;-73
2021/12/18 00:53:21;;;;;;;11.82;7.28;;;8.70;79.90;;;;;;5110973;28;20035;-73
2021/12/18 00:55:50;;;;;;;11.93;7.00;;;8.60;80.00;;;;;;5110657;28;20063;-73
2021/12/18 00:58:16;;;;;;;14.10;6.97;;;8.60;80.30;;;;;;5112045;28;20031;-73
2021/12/18 01:00:42;;;;;;;12.50;7.55;;;8.60;80.00;;;;;;5111038;28;20027;-73
2021/12/18 01:03:19;;;;;;;12.40;7.00;;;8.70;80.60;;;;;;5110754;28;20008;-73
2021/12/18 01:05:46;;;;;;;11.60;6.90;;;8.70;80.50;;;;;;5110493;28;20044;-73
2021/12/18 01:08:12;;;;;;;12.70;7.45;;;8.70;80.40;;;;;;5110614;28;20024;-73
2021/12/18 01:10:55;;;;;;;12.07;6.93;;;8.50;79.90;;;;;;5110755;28;20019;-73
2021/12/18 01:13:26;;;;;;;14.73;7.97;;;8.50;80.20;;;;;;5111798;28;20044;-73
2021/12/18 01:15:55;;;;;;;13.98;7.30;;;8.60;80.40;;;;;;5111948;28;20008;-73
2021/12/18 01:24:09;;;;;;;14.23;8.05;;;8.50;80.30;;;;;;5029129;28;20029;-73
2021/12/18 01:26:35;;;;;;;13.52;7.72;;;8.50;80.40;;;;;;5028632;28;20449;-73
2021/12/18 01:29:01;;;;;;;14.00;8.20;;;8.40;80.20;;;;;;5027472;28;20037;-73
2021/12/18 01:31:27;;;;;;;13.88;7.25;;;8.40;80.30;;;;;;5029396;28;20076;-73
2021/12/18 01:33:52;;;;;;;14.02;7.90;;;8.40;80.90;;;;;;5029457;28;20034;-73
2021/12/18 01:36:19;;;;;;;14.52;7.38;;;8.40;80.50;;;;;;5029009;28;20520;-73
2021/12/18 01:38:45;;;;;;;15.73;8.32;;;8.50;80.50;;;;;;5029088;28;20064;-73
2021/12/18 01:41:11;;;;;;;15.68;8.68;;;8.30;80.50;;;;;;5029263;28;20092;-73
2021/12/18 01:53:56;;;;;;;14.85;7.50;;;8.40;80.90;;;;;;5036288;28;20076;-73
2021/12/18 01:56:24;;;;;;;13.20;7.97;;;8.40;80.90;;;;;;5110004;28;20076;-73
2021/12/18 01:58:50;;;;;;;14.40;7.28;;;8.40;80.50;;;;;;5109759;28;20034;-73
2021/12/18 02:01:18;;;;;;;13.82;7.88;;;8.30;80.70;;;;;;5111847;28;20023;-73
2021/12/18 02:03:45;;;;;;;13.65;7.80;;;8.20;80.50;;;;;;5125259;27;20404;-73
2021/12/18 02:06:11;;;;;;;12.30;7.22;;;8.30;81.10;;;;;;5109946;28;20072;-73
2021/12/18 02:08:39;;;;;;;14.35;8.35;;;8.30;81.00;;;;;;5110053;28;20514;-73
2021/12/18 02:19:47;;;;;;;12.07;7.18;;;8.20;80.70;;;;;;5108265;28;20517;-72
2021/12/18 02:22:15;;;;;;;14.95;8.35;;;8.20;81.30;;;;;;5107883;28;20027;-71
2021/12/18 02:24:40;;;;;;;15.48;8.13;;;8.20;80.80;;;;;;5110481;28;20034;-71
2021/12/18 02:27:06;;;;;;;13.63;7.63;;;8.20;81.10;;;;;;5109509;28;20106;-72
2021/12/18 02:29:35;;;;;;;13.18;7.65;;;8.30;80.90;;;;;;5109906;28;20111;-72
2021/12/18 02:32:02;;;;;;;14.73;8.57;;;8.20;81.20;;;;;;5110128;28;20464;-71
2021/12/18 02:34:30;;;;;;;13.32;7.28;;;8.20;81.00;;;;;;5110027;28;20034;-71
2021/12/18 02:37:03;;;;;;;15.45;8.30;;;8.10;80.80;;;;;;5110125;28;20388;-72
2021/12/18 02:42:19;;;;;;;15.45;8.35;;;8.10;81.00;;;;;;5113120;28;20064;-72
2021/12/18 02:44:45;;;;;;;13.50;8.20;;;8.10;81.50;;;;;;5113285;28;20385;-71
2021/12/18 02:47:12;;;;;;;13.80;7.95;;;8.10;81.20;;;;;;5113394;28;20031;-72
2021/12/18 02:49:51;;;;;;;14.40;8.30;;;8.20;81.20;;;;;;5113433;28;20503;-72
2021/12/18 02:52:18;;;;;;;13.73;8.00;;;8.20;81.20;;;;;;5111260;28;20050;-72
2021/12/18 02:54:44;;;;;;;13.90;7.55;;;8.20;81.30;;;;;;5113669;28;20492;-73
2021/12/18 02:57:11;;;;;;;12.50;7.20;;;8.20;81.20;;;;;;5112620;28;20118;-73
2021/12/18 02:59:48;;;;;;;12.73;7.13;;;8.10;80.80;;;;;;5112974;28;20027;-72
2021/12/18 03:02:16;;;;;;;12.00;7.28;;;8.10;80.90;;;;;;5113083;28;20030;-72
2021/12/18 03:04:44;;;;;;;13.05;7.60;;;8.10;80.80;;;;;;5113205;28;20024;-72
2021/12/18 03:07:12;;;;;;;14.07;7.70;;;8.00;80.80;;;;;;5115186;28;20057;-72
2021/12/18 03:25:55;;;;;;;13.55;7.57;;;7.90;81.20;;;;;;5097195;28;20601;-73
2021/12/18 03:28:20;;;;;;;12.18;7.18;;;7.90;81.20;;;;;;5113876;28;20054;-72
2021/12/18 03:30:46;;;;;;;13.65;7.90;;;8.00;81.30;;;;;;5113631;28;20067;-72
2021/12/18 03:33:12;;;;;;;13.95;8.48;;;8.00;81.30;;;;;;5112404;28;20126;-72
2021/12/18 03:35:37;;;;;;;13.63;8.35;;;8.00;81.10;;;;;;5112195;28;20023;-72
2021/12/18 03:38:04;;;;;;;13.65;7.78;;;8.00;81.30;;;;;;5112501;28;20122;-72
2021/12/18 03:40:30;;;;;;;12.95;7.47;;;7.90;81.00;;;;;;5112125;28;20107;-72
2021/12/18 03:42:55;;;;;;;12.82;7.50;;;8.00;81.30;;;;;;5114276;28;20031;-72
2021/12/18 03:45:23;;;;;;;13.57;7.75;;;8.00;81.30;;;;;;5112271;28;20023;-72
2021/12/18 03:47:50;;;;;;;17.70;8.73;;;7.90;80.50;;;;;;5112329;28;20019;-72
2021/12/18 03:50:17;;;;;;;11.95;7.28;;;8.00;81.20;;;;;;5111370;28;20019;-72
2021/12/18 03:52:43;;;;;;;12.63;7.20;;;7.90;81.00;;;;;;5096077;28;20024;-72
2021/12/18 03:55:09;;;;;;;13.43;7.65;;;8.00;80.90;;;;;;5113488;28;20052;-72
2021/12/18 03:57:35;;;;;;;12.82;7.80;;;7.90;80.70;;;;;;5111859;28;20023;-72
2021/12/18 04:00:00;;;;;;;14.75;8.15;;;7.80;80.60;;;;;;5112055;28;20028;-71
2021/12/18 04:02:26;;;;;;;13.32;7.80;;;7.80;81.10;;;;;;5111958;28;20035;-72
2021/12/18 04:04:52;;;;;;;14.13;7.53;;;7.80;81.30;;;;;;5111879;28;20020;-72
2021/12/18 04:07:18;;;;;;;13.57;8.35;;;7.80;81.00;;;;;;5113199;28;20027;-72
2021/12/18 04:09:44;;;;;;;14.10;8.02;;;7.90;81.00;;;;;;5112105;28;20034;-72
2021/12/18 04:12:10;;;;;;;13.32;7.93;;;7.80;80.90;;;;;;5111759;28;20019;-72
2021/12/18 04:14:35;;;;;;;13.95;8.20;;;7.80;81.10;;;;;;5111242;28;20065;-71
2021/12/18 04:17:03;;;;;;;14.77;7.90;;;7.70;80.90;;;;;;5111603;28;20043;-71
2021/12/18 04:19:29;;;;;;;13.60;7.50;;;7.70;80.70;;;;;;5111563;28;20032;-72
2021/12/18 04:21:54;;;;;;;15.18;8.43;;;7.60;81.10;;;;;;5095387;28;20154;-72
2021/12/18 04:24:20;;;;;;;12.95;7.72;;;7.60;80.90;;;;;;5110992;28;20026;-71
2021/12/18 04:26:46;;;;;;;13.48;8.27;;;7.60;80.80;;;;;;5111313;28;20048;-72
2021/12/18 04:29:12;;;;;;;13.15;8.00;;;7.60;80.90;;;;;;5111625;28;20019;-72
2021/12/18 04:31:40;;;;;;;14.32;8.15;;;7.60;81.10;;;;;;5111347;28;20028;-72
2021/12/18 04:34:06;;;;;;;14.57;8.07;;;7.60;81.30;;;;;;5113171;28;20031;-72
2021/12/18 04:36:33;;;;;;;15.13;7.97;;;7.50;81.00;;;;;;5111287;28;20016;-72
2021/12/18 04:38:59;;;;;;;12.23;7.82;;;7.60;82.10;;;;;;5110815;28;20023;-72
2021/12/18 04:41:37;;;;;;;13.07;8.57;;;7.60;81.30;;;;;;5111064;28;20019;-71
2021/12/18 04:44:04;;;;;;;12.50;7.78;;;7.50;81.30;;;;;;5111307;28;20054;-72
2021/12/18 04:46:30;;;;;;;13.30;8.02;;;7.50;81.10;;;;;;5111104;28;20012;-72
2021/12/18 04:48:55;;;;;;;14.63;7.80;;;7.50;81.40;;;;;;5113144;28;20032;-72
2021/12/18 04:51:21;;;;;;;14.63;8.32;;;7.50;81.10;;;;;;5111054;28;20098;-72
2021/12/18 04:53:47;;;;;;;14.02;8.60;;;7.40;81.10;;;;;;5110610;28;20035;-72
2021/12/18 04:56:13;;;;;;;13.68;8.15;;;7.40;81.00;;;;;;5111059;28;20032;-72
2021/12/18 04:58:38;;;;;;;14.82;7.95;;;7.40;81.20;;;;;;5111113;28;20031;-72
2021/12/18 05:01:04;;;;;;;13.10;7.32;;;7.40;81.50;;;;;;5112716;28;20034;-72
2021/12/18 05:03:31;;;;;;;15.68;8.52;;;7.50;81.80;;;;;;5110781;28;20404;-72
2021/12/18 05:05:59;;;;;;;13.82;8.48;;;7.40;81.30;;;;;;5111002;28;20027;-72
2021/12/18 05:08:25;;;;;;;13.93;8.48;;;7.40;81.40;;;;;;5110331;28;20089;-72
2021/12/18 05:10:51;;;;;;;12.65;7.85;;;7.40;81.40;;;;;;5109389;28;20489;-71
2021/12/18 05:13:17;;;;;;;14.85;8.27;;;7.40;81.30;;;;;;5112477;28;20027;-72
2021/12/18 05:15:43;;;;;;;11.65;7.47;;;7.40;81.20;;;;;;5109486;28;20031;-72
2021/12/18 05:18:08;;;;;;;12.63;8.02;;;7.40;82.10;;;;;;5110510;28;20016;-72
2021/12/18 05:20:34;;;;;;;13.45;8.55;;;7.30;81.00;;;;;;5110421;28;20032;-72
2021/12/18 05:23:00;;;;;;;11.95;7.38;;;7.30;81.30;;;;;;5109903;28;20027;-72
2021/12/18 05:25:26;;;;;;;16.23;8.07;;;7.20;81.10;;;;;;5111193;28;20132;-72
2021/12/18 05:27:51;;;;;;;15.68;8.27;;;7.30;81.50;;;;;;5112088;28;20441;-71
2021/12/18 05:30:17;;;;;;;13.93;7.82;;;7.20;81.20;;;;;;5110078;28;20673;-71
2021/12/18 05:32:42;;;;;;;13.25;8.07;;;7.20;81.40;;;;;;5110399;28;20020;-72
2021/12/18 05:35:08;;;;;;;13.18;7.65;;;7.20;81.50;;;;;;5110166;28;20042;-72
2021/12/18 05:40:15;;;;;;;12.13;7.25;;;7.20;81.50;;;;;;5108024;28;20023;-74
2021/12/18 05:42:41;;;;;;;13.45;7.70;;;7.20;81.40;;;;;;5109941;28;20035;-72
2021/12/18 05:45:07;;;;;;;14.80;8.18;;;7.20;81.60;;;;;;5109942;28;20042;-73
2021/12/18 05:47:35;;;;;;;10.40;6.70;;;7.20;81.40;;;;;;5110448;28;20032;-73
2021/12/18 05:50:01;;;;;;;13.65;7.60;;;7.20;81.50;;;;;;5110291;28;20015;-73
2021/12/18 05:52:27;;;;;;;12.38;8.10;;;7.10;81.00;;;;;;5110848;28;20034;-73
2021/12/18 05:54:53;;;;;;;12.85;7.47;;;7.10;81.30;;;;;;5111789;28;20079;-73
2021/12/18 05:57:19;;;;;;;14.30;7.93;;;7.10;81.50;;;;;;5110438;28;20058;-74
2021/12/18 05:59:44;;;;;;;13.70;8.40;;;7.10;81.40;;;;;;5110080;28;20106;-74
2021/12/18 06:02:10;;;;;;;12.85;7.57;;;7.00;81.30;;;;;;5110327;28;20380;-74
2021/12/18 06:04:36;;;;;;;14.13;8.50;;;7.00;81.50;;;;;;5110102;28;20111;-74
2021/12/18 06:07:06;;;;;;;13.82;8.18;;;7.10;81.60;;;;;;5112288;28;20024;-74
2021/12/18 06:09:47;;;;;;;13.18;8.00;;;7.10;81.60;;;;;;4986418;28;20393;-75
2021/12/18 06:12:13;;;;;;;12.35;7.80;;;7.10;81.60;;;;;;4973117;28;20491;-74
2021/12/18 06:14:38;;;;;;;11.50;7.20;;;7.00;81.30;;;;;;4969725;28;20031;-75
2021/12/18 06:17:04;;;;;;;12.90;7.45;;;7.00;81.40;;;;;;4966728;28;20038;-75
2021/12/18 06:19:30;;;;;;;13.60;8.40;;;7.10;81.50;;;;;;4966743;28;20031;-74
2021/12/18 06:21:55;;;;;;;13.10;7.70;;;7.00;81.50;;;;;;4971773;28;20030;-75
2021/12/18 06:24:21;;;;;;;13.20;8.25;;;7.00;81.40;;;;;;4969383;28;20479;-75
2021/12/18 06:26:47;;;;;;;12.40;7.60;;;7.00;81.50;;;;;;4969606;28;20395;-74
2021/12/18 06:29:12;;;;;;;12.93;7.75;;;7.00;81.50;;;;;;4968998;28;20403;-75
2021/12/18 06:31:39;;;;;;;12.70;7.10;;;6.90;81.10;;;;;;4965555;28;20113;-75
2021/12/18 06:34:05;;;;;;;13.43;7.70;;;6.90;81.60;;;;;;4970984;28;20026;-75
2021/12/18 06:36:31;;;;;;;13.82;7.53;;;6.90;81.50;;;;;;4969279;28;20476;-75
2021/12/18 06:38:57;;;;;;;13.32;7.78;;;6.90;81.60;;;;;;4969438;28;20034;-75
2021/12/18 06:41:22;;;;;;;13.98;8.05;;;6.80;81.40;;;;;;4969216;28;20030;-74
2021/12/18 06:43:48;;;;;;;12.40;8.07;;;6.90;82.70;;;;;;4965393;28;20035;-75
2021/12/18 06:46:14;;;;;;;13.50;7.78;;;6.80;81.50;;;;;;4970641;28;20019;-75
2021/12/18 06:48:39;;;;;;;13.25;7.80;;;6.80;81.60;;;;;;4967365;28;20038;-75
2021/12/18 06:51:05;;;;;;;12.65;7.85;;;6.80;81.40;;;;;;4969019;28;20049;-75
2021/12/18 06:53:31;;;;;;;12.75;7.50;;;6.80;81.10;;;;;;4967719;28;20031;-75
2021/12/18 06:55:56;;;;;;;9.70;5.70;;;6.80;81.50;;;;;;4966446;28;20025;-75
2021/12/18 06:58:22;;;;;;;13.55;7.50;;;6.70;81.10;;;;;;4968252;28;20394;-74
2021/12/18 07:00:48;;;;;;;12.98;7.75;;;6.70;81.20;;;;;;4970056;28;20031;-74
2021/12/18 07:03:13;;;;;;;11.25;7.35;;;6.70;81.30;;;;;;4968493;28;20456;-75
2021/12/18 07:05:39;;;;;;;12.52;7.72;;;6.60;80.80;;;;;;4968964;28;20031;-75
2021/12/18 07:08:05;;;;;;;11.40;6.88;;;6.60;80.90;;;;;;4967186;28;20051;-75
2021/12/18 07:10:31;;;;;;;11.65;7.43;;;6.60;80.80;;;;;;4964791;28;20061;-75
2021/12/18 07:12:58;;;;;;;12.80;8.05;;;6.50;80.60;;;;;;4970452;28;20038;-74
2021/12/18 07:15:23;;;;;;;12.77;7.50;;;6.50;80.90;;;;;;4968817;28;20023;-75
2021/12/18 07:17:49;;;;;;;12.27;8.05;;;6.50;81.00;;;;;;4967300;28;20039;-75
2021/12/18 07:20:15;;;;;;;13.55;7.82;;;6.50;81.00;;;;;;4960607;28;20038;-75
2021/12/18 07:22:41;;;;;;;12.05;7.32;;;6.40;80.70;;;;;;4951856;28;20023;-75
2021/12/18 07:25:07;;;;;;;12.98;7.57;;;6.50;80.90;;;;;;4957777;28;20085;-75
2021/12/18 07:27:33;;;;;;;12.70;7.97;;;6.40;81.20;;;;;;4955572;28;20027;-75
2021/12/18 07:29:58;;;;;;;12.00;7.60;;;6.40;81.00;;;;;;4955679;28;20407;-75
2021/12/18 07:32:26;;;;;;;11.77;7.32;;;6.30;80.80;;;;;;4955466;28;20075;-74
2021/12/18 07:34:53;;;;;;;12.20;7.50;;;6.30;81.70;;;;;;4952289;28;20544;-74
2021/12/18 07:37:19;;;;;;;12.27;7.10;;;6.30;81.20;;;;;;4955802;28;20024;-75
2021/12/18 07:39:44;;;;;;;12.18;7.43;;;6.20;81.10;;;;;;4956215;28;20499;-74
2021/12/18 07:42:10;;;;;;;12.77;7.82;;;6.30;81.20;;;;;;4955497;28;20031;-75
2021/12/18 07:44:36;;;;;;;11.75;6.72;;;6.30;81.00;;;;;;4954141;28;20042;-75
2021/12/18 07:47:02;;;;;;;12.68;7.63;;;6.20;81.20;;;;;;4953098;28;20027;-74
2021/12/18 07:49:27;;;;;;;11.70;6.93;;;6.20;81.00;;;;;;4953433;28;20082;-75
2021/12/18 07:51:54;;;;;;;11.40;6.95;;;6.20;81.10;;;;;;4957080;28;20110;-75
2021/12/18 07:54:20;;;;;;;10.38;6.78;;;6.20;81.10;;;;;;4955201;28;20096;-74
2021/12/18 07:56:46;;;;;;;13.30;7.57;;;6.20;81.30;;;;;;4955488;28;20479;-74
2021/12/18 07:59:11;;;;;;;12.25;6.97;;;6.20;81.30;;;;;;4954826;28;20031;-74
2021/12/18 08:01:37;;;;;;;11.05;6.97;;;6.20;81.10;;;;;;4951571;28;20042;-74
2021/12/18 08:04:03;;;;;;;12.80;7.13;;;6.30;81.00;;;;;;4957076;28;20031;-75
2021/12/18 08:06:28;;;;;;;11.38;6.32;;;6.20;81.40;;;;;;4954953;28;20061;-75
2021/12/18 08:08:54;;;;;;;11.18;7.35;;;6.30;81.50;;;;;;4954829;28;20055;-75
2021/12/18 08:11:20;;;;;;;12.65;7.15;;;6.40;81.50;;;;;;4954995;28;20110;-75
2021/12/18 08:13:45;;;;;;;12.52;7.10;;;6.60;82.10;;;;;;4950763;28;20101;-75
2021/12/18 08:16:11;;;;;;;11.13;6.55;;;6.60;81.10;;;;;;4956628;28;20498;-75
2021/12/18 08:18:36;;;;;;;9.65;6.00;;;6.80;81.60;;;;;;4955127;28;20480;-75
2021/12/18 08:21:02;;;;;;;11.65;6.88;;;6.90;81.50;;;;;;4955301;28;20028;-75
2021/12/18 08:23:28;;;;;;;12.27;7.05;;;7.20;81.20;;;;;;4954968;28;20090;-76
2021/12/18 08:25:54;;;;;;;12.32;7.90;;;7.30;80.20;;;;;;4951850;28;20543;-75
2021/12/18 08:28:20;;;;;;;10.80;6.88;;;7.40;80.00;;;;;;4954848;28;20037;-76
2021/12/18 08:30:45;;;;;;;10.90;7.20;;;7.60;80.60;;;;;;4954583;28;20107;-74
2021/12/18 08:33:11;;;;;;;11.98;7.50;;;7.80;79.00;;;;;;4954179;28;20092;-74
2021/12/18 08:35:37;;;;;;;13.57;7.80;;;7.90;78.70;;;;;;4954742;28;20026;-74
2021/12/18 08:38:04;;;;;;;11.82;8.10;;;7.90;78.10;;;;;;4952666;28;20038;-73
2021/12/18 08:40:30;;;;;;;12.60;7.55;;;8.20;78.20;;;;;;4952241;28;20023;-73
2021/12/18 08:42:56;;;;;;;13.00;7.70;;;8.40;77.60;;;;;;4951863;28;20088;-74
2021/12/18 08:45:22;;;;;;;14.07;8.32;;;8.70;78.20;;;;;;4947169;28;20488;-74
2021/12/18 08:47:48;;;;;;;13.18;7.97;;;8.90;76.70;;;;;;4950494;28;20040;-74
2021/12/18 08:50:17;;;;;;;13.25;8.18;;;9.00;76.00;;;;;;4948584;29;20420;-74
2021/12/18 08:52:47;;;;;;;13.15;8.20;;;9.30;77.40;;;;;;4933761;28;20162;-74
2021/12/18 08:55:14;;;;;;;10.45;7.07;;;9.40;74.70;;;;;;4948157;28;20027;-76
2021/12/18 08:57:39;;;;;;;13.27;7.90;;;9.70;75.40;;;;;;4940667;28;20105;-74
2021/12/18 09:00:11;;;;;;;16.05;8.90;;;10.00;76.40;;;;;;4940343;29;20086;-73
2021/12/18 09:02:40;;;;;;;12.60;8.45;;;10.20;73.90;;;;;;4945175;28;20115;-74
2021/12/18 09:05:09;;;;;;;12.15;8.43;;;10.40;74.40;;;;;;4948305;28;20023;-72
2021/12/18 09:07:35;;;;;;;12.40;8.02;;;10.70;73.10;;;;;;4934189;28;20425;-74
2021/12/18 09:10:05;;;;;;;11.38;7.80;;;10.90;72.30;;;;;;4937596;28;20113;-74
2021/12/18 09:12:31;;;;;;;13.75;8.57;;;11.00;71.50;;;;;;4937141;28;20177;-73
2021/12/18 09:14:56;;;;;;;15.48;9.15;;;11.30;73.20;;;;;;4948747;28;20121;-68
2021/12/18 09:17:22;;;;;;;14.18;8.63;;;11.50;70.70;;;;;;4947393;29;20086;-67
2021/12/18 09:19:48;;;;;;;12.25;8.95;;;11.10;68.90;;;;;;4933251;28;20416;-64
2021/12/18 09:22:14;;;;;;;11.45;8.52;;;10.80;70.10;;;;;;4936192;28;20028;-63
2021/12/18 09:24:40;;;;;;;14.65;9.25;;;10.80;71.10;;;;;;4952079;28;20041;-63
2021/12/18 09:27:06;;;;;;;15.75;9.27;;;10.90;71.40;;;;;;4940561;29;20023;-65
2021/12/18 09:29:33;;;;;;;14.93;8.70;;;11.00;71.50;;;;;;4957739;28;20509;-63
2021/12/18 09:31:59;;;;;;;13.82;8.82;;;11.10;71.20;;;;;;4947318;28;20077;-63
2021/12/18 09:34:27;;;;;;;14.57;9.15;;;11.20;70.90;;;;;;4947521;28;20062;-63
2021/12/18 09:36:53;;;;;;;12.57;8.60;;;11.40;71.10;;;;;;4977371;28;20034;-63
2021/12/18 09:39:19;;;;;;;13.35;9.05;;;11.70;71.00;;;;;;4945071;28;20027;-63
2021/12/18 09:41:48;;;;;;;13.20;8.73;;;11.80;70.50;;;;;;4944865;28;20049;-63
2021/12/18 09:44:14;;;;;;;13.63;8.80;;;11.90;70.80;;;;;;4944845;28;20036;-64
2021/12/18 09:46:40;;;;;;;13.40;9.50;;;12.10;68.30;;;;;;4948901;28;20034;-63
2021/12/18 09:49:07;;;;;;;14.25;9.07;;;12.10;68.60;;;;;;4947027;28;20032;-64
2021/12/18 09:51:37;;;;;;;13.05;9.55;;;12.30;68.80;;;;;;4944670;28;20030;-65
2021/12/18 09:54:03;;;;;;;15.05;9.75;;;12.20;67.70;;;;;;4944726;28;20027;-67
2021/12/18 09:56:29;;;;;;;14.20;8.93;;;12.40;68.80;;;;;;4946061;28;20035;-66
2021/12/18 09:58:54;;;;;;;12.98;8.75;;;12.60;67.50;;;;;;4964642;28;20560;-67
2021/12/18 10:01:21;;;;;;;13.45;9.10;;;12.80;66.50;;;;;;4953506;28;20090;-68
2021/12/18 10:03:53;;;;;;;14.25;9.60;;;12.90;66.60;;;;;;4954193;28;20062;-66
2021/12/18 10:06:39;;;;;;;13.25;9.50;;;13.00;65.60;;;;;;4952902;28;20057;-65
2021/12/18 10:09:19;;;;;;;14.00;9.20;;;13.10;66.60;;;;;;4945817;28;20106;-69
2021/12/18 10:11:54;;;;;;;13.25;8.73;;;13.30;65.70;;;;;;4960499;28;20408;-67
2021/12/18 10:14:38;;;;;;;12.93;8.82;;;13.30;64.80;;;;;;4936532;28;20023;-65
2021/12/18 10:17:17;;;;;;;12.30;8.85;;;13.50;65.00;;;;;;4934619;28;20024;-65
2021/12/18 10:19:43;;;;;;;12.70;9.07;;;13.60;63.90;;;;;;4932190;28;20110;-66
2021/12/18 10:22:10;;;;;;;13.52;9.07;;;13.70;63.00;;;;;;4935605;28;20400;-66
2021/12/18 10:24:40;;;;;;;13.50;9.55;;;13.60;62.10;;;;;;4943979;28;20399;-65
2021/12/18 10:27:26;;;;;;;13.48;9.90;;;13.70;63.10;;;;;;4943916;28;20023;-66
2021/12/18 10:29:53;;;;;;;13.13;9.65;;;13.80;65.00;;;;;;4938128;29;20038;-66
2021/12/18 10:32:22;;;;;;;13.55;9.35;;;14.00;62.30;;;;;;4942903;28;20024;-66
2021/12/18 10:34:54;;;;;;;13.70;9.30;;;14.10;62.30;;;;;;4933269;28;20528;-63
2021/12/18 10:37:22;;;;;;;14.77;9.63;;;14.30;62.00;;;;;;4972372;28;20016;-63
2021/12/18 10:39:50;;;;;;;13.10;9.90;;;14.30;60.50;;;;;;4948571;28;20073;-66
2021/12/18 10:42:22;;;;;;;11.32;8.88;;;14.40;61.60;;;;;;4941868;28;20031;-66
2021/12/18 10:45:20;;;;;;;13.65;9.45;;;14.60;61.30;;;;;;4937041;29;20031;-64
2021/12/18 10:47:54;;;;;;;14.57;8.93;;;14.80;61.30;;;;;;4936267;29;20028;-65
2021/12/18 10:50:40;;;;;;;12.57;9.07;;;14.70;59.00;;;;;;4936286;29;20496;-65
2021/12/18 10:53:07;;;;;;;12.35;9.32;;;14.80;61.20;;;;;;4934607;29;20118;-65
2021/12/18 10:55:40;;;;;;;13.10;9.05;;;15.00;58.80;;;;;;4934272;29;20106;-66
2021/12/18 10:58:14;;;;;;;11.00;8.52;;;15.10;59.10;;;;;;4949522;29;20035;-65
2021/12/18 11:00:53;;;;;;;11.48;8.93;;;15.30;59.00;;;;;;4939728;28;20493;-65
2021/12/18 11:03:23;;;;;;;10.88;8.32;;;15.40;58.40;;;;;;4936620;28;20062;-65
2021/12/18 11:06:05;;;;;;;11.73;8.75;;;15.40;57.50;;;;;;4940326;28;20451;-65
2021/12/18 11:08:37;;;;;;;11.57;9.30;;;15.40;58.70;;;;;;4948427;28;20051;-65
2021/12/18 11:13:53;;;;;;;12.02;8.65;;;15.70;57.10;;;;;;4937601;28;20114;-66
2021/12/18 11:16:19;;;;;;;12.73;8.98;;;15.70;56.00;;;;;;4945218;28;20027;-66
2021/12/18 11:18:47;;;;;;;11.15;8.65;;;15.70;56.60;;;;;;4950741;28;20494;-66
2021/12/18 11:21:14;;;;;;;11.90;9.25;;;15.80;56.80;;;;;;4949670;28;20027;-66
2021/12/18 11:24:04;;;;;;;10.45;8.52;;;15.90;55.60;;;;;;4943287;28;20034;-66
2021/12/18 11:26:45;;;;;;;12.52;8.98;;;15.70;55.80;;;;;;4938698;28;20031;-66
2021/12/18 11:29:22;;;;;;;12.40;8.98;;;15.80;56.30;;;;;;4937638;28;20061;-65
2021/12/18 11:31:48;;;;;;;12.00;8.40;;;16.00;56.20;;;;;;5012585;28;20039;-66
2021/12/18 11:34:16;;;;;;;12.45;8.32;;;16.00;54.60;;;;;;4949381;28;20046;-66
2021/12/18 11:36:44;;;;;;;10.52;7.63;;;16.00;54.20;;;;;;4944640;28;20729;-66
2021/12/18 11:39:12;;;;;;;10.35;8.30;;;16.30;54.60;;;;;;4940991;28;20058;-66
2021/12/18 11:41:41;;;;;;;10.57;8.45;;;16.50;54.40;;;;;;4947153;28;20027;-66
2021/12/18 11:44:39;;;;;;;10.73;8.45;;;16.60;53.80;;;;;;4946617;29;20032;-67
2021/12/18 11:47:31;;;;;;;10.68;8.05;;;16.40;54.10;;;;;;4949409;28;20492;-66
2021/12/18 11:50:24;;;;;;;11.05;8.45;;;16.70;54.20;;;;;;4948306;28;20062;-65
2021/12/18 11:53:06;;;;;;;11.15;7.78;;;16.70;53.50;;;;;;4934621;28;20027;-65
2021/12/18 11:55:56;;;;;;;10.70;8.55;;;16.80;53.20;;;;;;4953070;28;20024;-75
2021/12/18 11:58:28;;;;;;;10.25;7.30;;;16.90;54.00;;;;;;4935356;29;20110;-68
2021/12/18 12:01:00;;;;;;;10.85;8.65;;;17.10;52.50;;;;;;4948136;29;20104;-68
2021/12/18 12:03:38;;;;;;;9.40;7.80;;;17.20;51.10;;;;;;4940369;28;20012;-68
2021/12/18 12:06:24;;;;;;;9.50;7.50;;;17.30;52.10;;;;;;4938229;28;20066;-68
2021/12/18 12:09:13;;;;;;;9.88;7.45;;;17.30;51.70;;;;;;4956279;28;20534;-69
2021/12/18 12:11:52;;;;;;;9.93;7.68;;;17.20;49.70;;;;;;4970992;28;20102;-69
2021/12/18 12:14:20;;;;;;;10.45;7.57;;;17.20;50.10;;;;;;5014904;28;20032;-67
2021/12/18 12:16:46;;;;;;;11.07;8.10;;;17.10;50.60;;;;;;4951731;28;20026;-67
2021/12/18 12:19:20;;;;;;;8.80;7.50;;;17.20;50.10;;;;;;4951314;28;20027;-68
2021/12/18 12:21:52;;;;;;;9.57;6.88;;;17.20;50.50;;;;;;4937854;28;20020;-68
2021/12/18 12:24:21;;;;;;;8.77;6.63;;;17.30;50.50;;;;;;4939754;28;20067;-68
2021/12/18 12:26:47;;;;;;;8.88;6.85;;;17.30;49.00;;;;;;4962470;28;20023;-68
2021/12/18 12:29:14;;;;;;;8.48;6.78;;;17.10;49.30;;;;;;4934841;28;20046;-67
2021/12/18 12:32:00;;;;;;;8.73;7.35;;;17.20;50.60;;;;;;4949487;28;20016;-70
2021/12/18 12:34:33;;;;;;;9.10;6.80;;;17.10;49.20;;;;;;4961578;28;20452;-68
2021/12/18 12:37:27;;;;;;;8.70;6.70;;;17.00;49.10;;;;;;4941574;29;20023;-69
2021/12/18 12:40:02;;;;;;;8.80;7.05;;;17.00;50.50;;;;;;4947664;28;20031;-69
2021/12/18 12:42:28;;;;;;;8.77;6.57;;;16.90;49.40;;;;;;4944076;28;20023;-68
2021/12/18 12:45:07;;;;;;;8.52;5.82;;;16.60;47.80;;;;;;4944186;28;20019;-67
2021/12/18 12:47:33;;;;;;;7.82;6.63;;;16.70;49.00;;;;;;4946831;28;20027;-67
2021/12/18 12:50:13;;;;;;;8.88;6.90;;;16.90;48.90;;;;;;4933854;29;20035;-67
2021/12/18 12:52:52;;;;;;;7.25;5.95;;;16.80;49.00;;;;;;4979254;28;20024;-68
2021/12/18 12:55:20;;;;;;;6.60;5.80;;;16.90;49.00;;;;;;4947316;28;20427;-67
2021/12/18 12:57:50;;;;;;;7.72;6.10;;;16.80;47.60;;;;;;4945456;29;20035;-67
2021/12/18 13:00:22;;;;;;;7.30;5.70;;;16.90;48.70;;;;;;4944413;28;20408;-67
2021/12/18 13:02:59;;;;;;;8.48;6.57;;;16.70;46.70;;;;;;4943525;28;20038;-67
2021/12/18 13:05:27;;;;;;;6.63;5.60;;;16.40;48.10;;;;;;4936182;28;20063;-67
2021/12/18 13:07:55;;;;;;;8.38;5.93;;;16.50;47.80;;;;;;4944525;28;20511;-76
2021/12/18 13:10:27;;;;;;;6.47;5.28;;;16.50;48.90;;;;;;4947525;28;20400;-76
2021/12/18 13:12:53;;;;;;;7.15;5.65;;;16.70;49.00;;;;;;4948467;28;20019;-76
2021/12/18 13:15:20;;;;;;;7.60;5.78;;;16.70;48.00;;;;;;4945109;28;20037;-76
2021/12/18 13:17:47;;;;;;;7.05;5.43;;;16.60;47.80;;;;;;4955338;28;20508;-79
2021/12/18 13:20:12;;;;;;;7.13;4.97;;;16.50;47.50;;;;;;4947449;28;20495;-75
2021/12/18 13:22:38;;;;;;;6.78;5.68;;;16.40;48.40;;;;;;4932567;28;20081;-80
2021/12/18 13:25:10;;;;;;;6.80;5.20;;;16.40;47.80;;;;;;4936193;29;20507;-83
2021/12/18 13:27:39;;;;;;;6.70;5.10;;;16.10;48.70;;;;;;4936192;28;20024;-80
2021/12/18 13:30:12;;;;;;;6.30;5.15;;;16.40;49.60;;;;;;4951508;28;20050;-77
2021/12/18 13:32:54;;;;;;;6.50;5.15;;;16.60;48.60;;;;;;4953245;28;20027;-75
2021/12/18 13:35:21;;;;;;;6.72;5.10;;;16.50;48.60;;;;;;4951756;28;20031;-77
2021/12/18 13:38:05;;;;;;;5.80;4.57;;;16.40;48.20;;;;;;4949006;28;20024;-76
2021/12/18 13:40:35;;;;;;;6.15;4.88;;;16.40;49.50;;;;;;4950101;28;20027;-67
2021/12/18 13:43:08;;;;;;;6.85;5.20;;;16.20;48.00;;;;;;4954985;28;20035;-67
2021/12/18 13:45:52;;;;;;;6.13;4.63;;;16.00;46.80;;;;;;4953018;28;20031;-68